Stormwatcher's Retreat Logo




                  Temp     Hi    Low   Out    Dew  Wind  Wind   Wind    Hi    Hi   Wind   Heat    THW   THSW                Rain  Solar   Solar Hi Solar   UV    UV    Hi     Heat    Cool    In     In    In     In     In   In Air          Wind  Wind    ISS   Arc.
  Date    Time     Out   Temp   Temp   Hum    Pt. Speed   Dir    Run Speed   Dir  Chill  Index  Index  Index   Bar    Rain  Rate   Rad.  Energy    Rad.  Index  Dose   UV     D-D     D-D    Temp   Hum    Dew   Heat    EMC Density     ET   Samp   Tx   Recept  Int.
------------------------------------------------------------------------------------------------------------------------------------------------------------------------------------------------------------------------------------------------------------------------
 4/19/19 12:10a   55.0   55.0   54.9    84   50.3   3.0    NE   0.50   5.0    NE   55.0   54.9   54.9   51.8  30.102  0.00  0.00     0     0.00      0     0.0  0.00   0.0   0.069   0.000   72.8    52   54.1   72.4   9.59  .0739    0.000   211    5    100.0   10 
 4/19/19 12:20a   54.8   54.9   54.8    84   50.1   3.0   ENE   0.50   5.0   ENE   54.8   54.7   54.7   51.6  30.102  0.00  0.00     0     0.00      0     0.0  0.00   0.0   0.071   0.000   72.7    52   54.1   72.3   9.60  .0739    0.000   210    5    100.0   10 
 4/19/19 12:30a   54.6   54.8   54.6    84   49.9   2.0   ENE   0.33   5.0    NE   54.6   54.5   54.5   51.4  30.101  0.00  0.00     0     0.00      0     0.0  0.00   0.0   0.072   0.000   72.7    52   54.1   72.3   9.60  .0739    0.000   214    5    100.0   10 
 4/19/19 12:40a   54.7   54.7   54.6    85   50.3   3.0    NE   0.50   5.0   NNE   54.7   54.6   54.6   51.5  30.097  0.00  0.00     0     0.00      0     0.0  0.00   0.0   0.072   0.000   72.7    52   54.1   72.3   9.60  .0739    0.000   211    5    100.0   10 
 4/19/19 12:50a   54.7   54.7   54.6    85   50.3   2.0    NE   0.33   4.0   ENE   54.7   54.6   54.6   51.5  30.096  0.00  0.00     0     0.00      0     0.0  0.00   0.0   0.072   0.000   72.7    52   54.1   72.3   9.60  .0739    0.000   212    5    100.0   10 
 4/19/19  1:00a   54.7   54.7   54.6    85   50.3   2.0    NE   0.33   4.0    NE   54.7   54.6   54.6   51.5  30.097  0.00  0.00     0     0.00      0     0.0  0.00   0.0   0.072   0.000   72.7    52   54.1   72.3   9.60  .0739    0.001   212    5    100.0   10 
 4/19/19  1:10a   54.6   54.8   54.6    85   50.2   2.0   ENE   0.33   4.0    NE   54.6   54.5   54.5   51.4  30.094  0.00  0.00     0     0.00      0     0.0  0.00   0.0   0.072   0.000   72.6    52   54.0   72.1   9.60  .0739    0.000   211    5    100.0   10 
 4/19/19  1:20a   54.2   54.6   54.2    85   49.8   2.0   ENE   0.33   3.0   ENE   54.2   54.1   54.1   51.0  30.091  0.00  0.00     0     0.00      0     0.0  0.00   0.0   0.075   0.000   72.6    52   54.0   72.1   9.60  .0739    0.000   211    5    100.0   10 
 4/19/19  1:30a   54.0   54.3   54.0    85   49.6   2.0   ENE   0.33   4.0   ENE   54.0   53.9   53.9   50.8  30.085  0.00  0.00     0     0.00      0     0.0  0.00   0.0   0.076   0.000   72.6    52   54.0   72.1   9.60  .0739    0.000   209    5    100.0   10 
 4/19/19  1:40a   53.9   54.0   53.9    85   49.5   1.0   ENE   0.17   3.0   ENE   53.9   53.8   53.8   50.7  30.082  0.00  0.00     0     0.00      0     0.0  0.00   0.0   0.077   0.000   72.5    52   53.9   72.0   9.60  .0739    0.000   212    5    100.0   10 
 4/19/19  1:50a   53.8   53.9   53.7    86   49.7   1.0   ENE   0.17   3.0   ENE   53.8   53.7   53.7   50.6  30.079  0.00  0.00     0     0.00      0     0.0  0.00   0.0   0.078   0.000   72.5    51   53.3   71.9   9.40  .0739    0.000   213    5    100.0   10 
 4/19/19  2:00a   53.5   53.8   53.5    85   49.1   1.0   ENE   0.17   2.0   ENE   53.5   53.4   53.4   50.3  30.077  0.00  0.00     0     0.00      0     0.0  0.00   0.0   0.080   0.000   72.5    51   53.3   71.9   9.40  .0739    0.001   212    5    100.0   10 
 4/19/19  2:10a   53.2   53.5   53.2    85   48.8   1.0   ENE   0.17   2.0   ENE   53.2   53.1   53.1   49.9  30.076  0.00  0.00     0     0.00      0     0.0  0.00   0.0   0.082   0.000   72.5    51   53.3   71.9   9.40  .0739    0.000   211    5    100.0   10 
 4/19/19  2:20a   53.1   53.1   53.0    86   49.0   2.0   ENE   0.33   3.0   ENE   53.1   53.0   53.0   49.9  30.073  0.00  0.00     0     0.00      0     0.0  0.00   0.0   0.083   0.000   72.4    51   53.2   71.7   9.40  .0739    0.000   210    5    100.0   10 
 4/19/19  2:30a   53.5   53.5   53.1    86   49.4   2.0   ENE   0.33   5.0   ENE   53.5   53.4   53.4   50.3  30.067  0.00  0.00     0     0.00      0     0.0  0.00   0.0   0.080   0.000   72.4    51   53.2   71.7   9.40  .0739    0.000   213    5    100.0   10 
 4/19/19  2:40a   53.8   53.8   53.5    86   49.7   2.0   ENE   0.33   5.0   ENE   53.8   53.7   53.7   50.6  30.063  0.00  0.00     0     0.00      0     0.0  0.00   0.0   0.078   0.000   72.3    51   53.2   71.6   9.40  .0739    0.000   210    5    100.0   10 
 4/19/19  2:50a   53.7   53.8   53.7    86   49.6   2.0   ENE   0.33   5.0   ENE   53.7   53.6   53.6   50.5  30.061  0.00  0.00     0     0.00      0     0.0  0.00   0.0   0.078   0.000   72.3    51   53.2   71.6   9.40  .0739    0.000   213    5    100.0   10 
 4/19/19  3:00a   53.5   53.7   53.5    86   49.4   2.0   ENE   0.33   4.0    NE   53.5   53.4   53.4   50.3  30.061  0.00  0.00     0     0.00      0     0.0  0.00   0.0   0.080   0.000   72.3    51   53.2   71.6   9.40  .0739    0.001   210    5    100.0   10 
 4/19/19  3:10a   53.3   53.5   53.3    87   49.5   2.0    NE   0.33   3.0    NE   53.3   53.3   53.3   50.2  30.059  0.00  0.00     0     0.00      0     0.0  0.00   0.0   0.081   0.000   72.2    51   53.1   71.5   9.41  .0739    0.000   212    5    100.0   10 
 4/19/19  3:20a   53.2   53.3   53.2    87   49.4   1.0     E   0.17   2.0     E   53.2   53.2   53.2   50.1  30.059  0.00  0.00     0     0.00      0     0.0  0.00   0.0   0.082   0.000   72.2    51   53.1   71.5   9.41  .0739    0.000   212    5    100.0   10 
 4/19/19  3:30a   53.1   53.2   53.1    87   49.3   2.0   ENE   0.33   3.0     E   53.1   53.1   53.1   50.0  30.060  0.00  0.00     0     0.00      0     0.0  0.00   0.0   0.083   0.000   72.2    51   53.1   71.5   9.41  .0739    0.000   211    5    100.0   10 
 4/19/19  3:40a   53.1   53.1   53.1    87   49.3   1.0   ENE   0.17   2.0   ENE   53.1   53.1   53.1   50.0  30.060  0.00  0.00     0     0.00      0     0.0  0.00   0.0   0.083   0.000   72.1    51   53.0   71.3   9.41  .0740    0.000   212    5    100.0   10 
 4/19/19  3:50a   53.3   53.3   53.1    87   49.5   1.0   ENE   0.17   3.0   ENE   53.3   53.3   53.3   50.2  30.059  0.00  0.00     0     0.00      0     0.0  0.00   0.0   0.081   0.000   72.1    51   53.0   71.3   9.41  .0740    0.000   212    5    100.0   10 
 4/19/19  4:00a   53.6   53.7   53.3    88   50.1   2.0   ENE   0.33   5.0   ENE   53.6   53.6   53.6   50.5  30.062  0.00  0.00     0     0.00      0     0.0  0.00   0.0   0.079   0.000   72.0    51   52.9   71.2   9.41  .0740    0.000   212    5    100.0   10 
 4/19/19  4:10a   53.7   53.8   53.7    88   50.2   2.0    NE   0.33   4.0    NE   53.7   53.7   53.7   50.6  30.063  0.00  0.00     0     0.00      0     0.0  0.00   0.0   0.078   0.000   72.0    51   52.9   71.2   9.41  .0740    0.000   211    5    100.0   10 
 4/19/19  4:20a   53.8   53.8   53.7    88   50.3   2.0   ENE   0.33   4.0   ENE   53.8   53.8   53.8   50.7  30.065  0.00  0.00     0     0.00      0     0.0  0.00   0.0   0.078   0.000   71.9    51   52.8   71.0   9.41  .0740    0.000   214    5    100.0   10 
 4/19/19  4:30a   53.9   53.9   53.8    88   50.4   2.0   ENE   0.33   4.0   ENE   53.9   53.9   53.9   50.8  30.066  0.00  0.00     0     0.00      0     0.0  0.00   0.0   0.077   0.000   71.9    51   52.8   71.0   9.41  .0740    0.000   213    5    100.0   10 
 4/19/19  4:40a   54.0   54.0   53.9    88   50.5   1.0   ENE   0.17   2.0   ENE   54.0   54.0   54.0   50.9  30.065  0.00  0.00     0     0.00      0     0.0  0.00   0.0   0.076   0.000   71.9    51   52.8   71.0   9.41  .0740    0.000   211    5    100.0   10 
 4/19/19  4:50a   53.9   54.0   53.9    88   50.4   1.0    NE   0.17   3.0    NE   53.9   53.9   53.9   50.8  30.064  0.00  0.00     0     0.00      0     0.0  0.00   0.0   0.077   0.000   71.8    51   52.7   70.9   9.41  .0740    0.000   214    5    100.0   10 
 4/19/19  5:00a   53.9   53.9   53.9    88   50.4   2.0   ENE   0.33   4.0   ENE   53.9   53.9   53.9   50.8  30.061  0.00  0.00     0     0.00      0     0.0  0.00   0.0   0.077   0.000   71.8    51   52.7   70.9   9.41  .0740    0.000   212    5    100.0   10 
 4/19/19  5:10a   53.9   53.9   53.9    88   50.4   1.0   ENE   0.17   3.0   ENE   53.9   53.9   53.9   50.8  30.058  0.00  0.00     0     0.00      0     0.0  0.00   0.0   0.077   0.000   71.8    51   52.7   70.9   9.41  .0740    0.000   212    5    100.0   10 
 4/19/19  5:20a   53.9   53.9   53.9    88   50.4   1.0   ENE   0.17   5.0   ENE   53.9   53.9   53.9   50.8  30.057  0.00  0.00     0     0.00      0     0.0  0.00   0.0   0.077   0.000   71.7    51   52.6   70.7   9.42  .0740    0.000   213    5    100.0   10 
 4/19/19  5:30a   53.9   53.9   53.9    88   50.4   1.0    NE   0.17   4.0    NE   53.9   53.9   53.9   50.8  30.056  0.00  0.00     0     0.00      0     0.0  0.00   0.0   0.077   0.000   71.6    51   52.5   70.6   9.42  .0740    0.000   211    5    100.0   10 
 4/19/19  5:40a   54.0   54.0   53.9    88   50.5   2.0     E   0.33   3.0     E   54.0   54.0   54.0   50.9  30.054  0.00  0.00     0     0.00      0     0.0  0.00   0.0   0.076   0.000   71.6    51   52.5   70.6   9.42  .0740    0.000   213    5    100.0   10 
 4/19/19  5:50a   53.9   54.0   53.9    88   50.4   2.0   ENE   0.33   3.0   ENE   53.9   53.9   53.9   50.8  30.051  0.00  0.00     0     0.00      0     0.0  0.00   0.0   0.077   0.000   71.6    51   52.5   70.6   9.42  .0740    0.000   212    5    100.0   10 
 4/19/19  6:00a   54.0   54.0   53.9    88   50.5   1.0   ENE   0.17   2.0   ENE   54.0   54.0   54.0   50.9  30.050  0.00  0.00     0     0.00      0     0.0  0.00   0.0   0.076   0.000   71.6    51   52.5   70.6   9.42  .0740    0.000   211    5    100.0   10 
 4/19/19  6:10a   54.0   54.0   53.9    88   50.5   1.0    NE   0.17   3.0    NE   54.0   54.0   54.0   50.9  30.052  0.00  0.00     0     0.00      0     0.0  0.00   0.0   0.076   0.000   71.5    51   52.4   70.4   9.42  .0741    0.000   212    5    100.0   10 
 4/19/19  6:20a   53.9   54.0   53.9    88   50.4   1.0    NE   0.17   3.0    NE   53.9   53.9   53.9   50.8  30.049  0.00  0.00     0     0.00      0     0.0  0.00   0.0   0.077   0.000   71.5    51   52.4   70.4   9.42  .0740    0.000   211    5    100.0   10 
 4/19/19  6:30a   53.9   53.9   53.9    88   50.4   1.0     E   0.17   3.0   ENE   53.9   53.9   53.9   50.8  30.049  0.00  0.00     0     0.00      0     0.0  0.00   0.0   0.077   0.000   71.4    51   52.3   70.3   9.42  .0741    0.000   213    5    100.0   10 
 4/19/19  6:40a   53.9   53.9   53.9    88   50.4   1.0   NNE   0.17   3.0    NE   53.9   53.9   53.9   50.9  30.047  0.00  0.00     1     0.01      5     0.0  0.00   0.0   0.077   0.000   71.4    51   52.3   70.3   9.42  .0741    0.000   212    5    100.0   10 
 4/19/19  6:50a   53.9   53.9   53.9    88   50.4   2.0   ENE   0.33   4.0    NE   53.9   53.9   53.9   51.0  30.044  0.00  0.00     6     0.09      9     0.0  0.00   0.0   0.077   0.000   71.4    51   52.3   70.3   9.42  .0740    0.000   214    5    100.0   10 
 4/19/19  7:00a   53.9   53.9   53.8    88   50.4   1.0    NE   0.17   2.0   ENE   53.9   53.9   53.9   51.1  30.043  0.00  0.00    12     0.17     14     0.0  0.00   0.0   0.077   0.000   71.4    51   52.3   70.3   9.42  .0740    0.000   213    5    100.0   10 
 4/19/19  7:10a   54.0   54.0   53.9    88   50.5   1.0   ENE   0.17   5.0   ENE   54.0   54.0   54.0   51.4  30.041  0.00  0.00    20     0.29     25     0.0  0.00   0.0   0.076   0.000   71.4    51   52.3   70.3   9.42  .0740    0.000   213    5    100.0   10 
 4/19/19  7:20a   54.0   54.0   53.9    88   50.5   2.0   ENE   0.33   6.0     E   54.0   54.0   54.0   51.6  30.040  0.00  0.00    33     0.47     39     0.0  0.00   0.0   0.076   0.000   71.4    51   52.3   70.3   9.42  .0740    0.000   214    5    100.0   10 
 4/19/19  7:30a   54.1   54.2   54.0    88   50.6   2.0   ENE   0.33   3.0   ENE   54.1   54.1   54.1   52.0  30.041  0.00  0.00    47     0.67     51     0.0  0.00   0.0   0.076   0.000   71.4    51   52.3   70.3   9.42  .0740    0.000   211    5    100.0   10 
 4/19/19  7:40a   54.1   54.2   54.1    88   50.6   2.0   NNE   0.33   5.0    NE   54.1   54.1   54.1   52.5  30.040  0.00  0.00    70     1.00     91     0.0  0.00   0.0   0.076   0.000   71.4    51   52.3   70.3   9.42  .0740    0.000   211    5    100.0   10 
 4/19/19  7:50a   54.4   54.4   54.1    89   51.2   2.0   ENE   0.33   4.0   ENE   54.4   54.5   54.5   53.9  30.038  0.00  0.00   113     1.62    123     0.0  0.00   0.0   0.074   0.000   71.5    51   52.4   70.4   9.42  .0740    0.000   212    5    100.0   10 
 4/19/19  8:00a   54.1   54.4   54.1    88   50.6   2.0     N   0.33   5.0     N   54.1   54.1   54.1   55.8  30.041  0.00  0.00    86     1.23    118     0.0  0.00   0.0   0.076   0.000   71.5    51   52.4   70.4   9.42  .0740    0.001   211    5    100.0   10 
 4/19/19  8:10a   54.3   54.3   54.0    89   51.1   2.0    NE   0.33   4.0   ENE   54.3   54.4   54.4   57.3  30.035  0.00  0.00   118     1.69    151     0.0  0.00   0.0   0.074   0.000   71.5    51   52.4   70.4   9.42  .0740    0.000   212    5    100.0   10 
 4/19/19  8:20a   54.4   54.4   54.2    89   51.2   2.0     N   0.33   4.0     N   54.4   54.5   54.5   58.7  30.037  0.00  0.00   157     2.25    167     0.0  0.00   0.0   0.074   0.000   71.5    51   52.4   70.4   9.42  .0740    0.000   213    5    100.0   10 
 4/19/19  8:30a   54.7   54.7   54.4    89   51.5   2.0    NE   0.33   4.0   NNE   54.7   54.8   54.8   59.1  30.038  0.00  0.00   155     2.22    162     0.0  0.00   0.0   0.072   0.000   71.6    51   52.5   70.6   9.42  .0740    0.000   210    5    100.0   10 
 4/19/19  8:40a   54.8   54.8   54.6    89   51.6   2.0    NE   0.33   3.0     N   54.8   54.9   54.9   58.1  30.035  0.00  0.00   124     1.78    171     0.0  0.00   0.0   0.071   0.000   71.6    51   52.5   70.6   9.42  .0740    0.000   213    5    100.0   10 
 4/19/19  8:50a   54.6   54.8   54.6    89   51.4   3.0     N   0.50   5.0   NNE   54.6   54.7   54.7   60.1  30.036  0.00  0.00   188     2.70    195     0.0  0.00   0.0   0.072   0.000   71.6    51   52.5   70.6   9.42  .0740    0.000   212    5    100.0   10 
 4/19/19  9:00a   54.6   54.6   54.5    89   51.4   3.0     N   0.50   5.0   NNW   54.6   54.7   54.7   59.3  30.036  0.00  0.00   172     2.47    178     0.0  0.00   0.0   0.072   0.000   71.7    51   52.6   70.7   9.42  .0740    0.003   212    5    100.0   10 
 4/19/19  9:10a   54.6   54.7   54.5    89   51.4   3.0   NNE   0.50   5.0     N   54.6   54.7   54.7   59.3  30.033  0.00  0.00   175     2.51    181     0.0  0.00   0.0   0.072   0.000   71.7    51   52.6   70.7   9.42  .0740    0.000   213    5    100.0   10 
 4/19/19  9:20a   54.7   54.8   54.6    89   51.5   3.0   NNE   0.50   4.0     N   54.7   54.8   54.8   59.5  30.032  0.00  0.00   186     2.67    193     0.0  0.00   0.0   0.072   0.000   71.7    51   52.6   70.7   9.42  .0740    0.000   214    5    100.0   10 
 4/19/19  9:30a   55.0   55.0   54.7    89   51.8   2.0   NNE   0.33   5.0   NNE   55.0   55.1   55.1   60.7  30.035  0.00  0.00   217     3.11    241     0.0  0.00   0.0   0.069   0.000   71.7    51   52.6   70.7   9.42  .0740    0.000   212    5    100.0   10 
 4/19/19  9:40a   55.1   55.1   55.0    88   51.6   3.0   NNE   0.50   5.0   NNW   55.1   55.1   55.1   61.5  30.035  0.00  0.00   252     3.61    258     0.0  0.00   0.0   0.069   0.000   71.8    51   52.7   70.9   9.41  .0740    0.000   213    5    100.0   10 
 4/19/19  9:50a   55.2   55.2   55.0    89   52.0   3.0   NNE   0.50   5.0     N   55.2   55.3   55.3   61.7  30.036  0.00  0.00   259     3.71    274     0.0  0.00   0.0   0.068   0.000   71.8    51   52.7   70.9   9.41  .0740    0.000   214    5    100.0   10 
 4/19/19 10:00a   55.3   55.3   55.1    89   52.1   3.0    NE   0.50   6.0   NNW   55.3   55.4   55.4   60.9  30.037  0.00  0.00   230     3.30    253     0.0  0.00   0.0   0.067   0.000   71.8    51   52.7   70.9   9.41  .0740    0.004   212    5    100.0   10 
 4/19/19 10:10a   55.3   55.4   55.2    89   52.1   3.0   NNE   0.50   5.0   NNE   55.3   55.4   55.4   62.6  30.036  0.00  0.00   304     4.36    348     0.0  0.00   0.0   0.067   0.000   71.9    51   52.8   71.0   9.41  .0739    0.000   212    5    100.0   10 
 4/19/19 10:20a   55.3   55.3   55.2    88   51.8   3.0     N   0.50   5.0   NNE   55.3   55.3   55.3   61.9  30.035  0.00  0.00   290     4.16    334     0.0  0.00   0.0   0.067   0.000   71.9    51   52.8   71.0   9.41  .0739    0.000   212    5    100.0   10 
 4/19/19 10:30a   55.2   55.3   55.2    88   51.7   3.0     N   0.50   5.0     N   55.2   55.2   55.2   62.1  30.035  0.00  0.00   307     4.40    320     0.0  0.00   0.0   0.068   0.000   72.0    51   52.9   71.2   9.41  .0739    0.000   211    5    100.0   10 
 4/19/19 10:40a   55.0   55.3   55.0    88   51.5   4.0     N   0.67   6.0   NNW   54.6   55.0   54.6   59.0  30.038  0.00  0.00   216     3.10    253     0.0  0.00   0.0   0.069   0.000   72.0    51   52.9   71.2   9.41  .0739    0.000   212    5    100.0   10 
 4/19/19 10:50a   55.1   55.1   54.9    88   51.6   4.0     N   0.67   8.0   NNW   54.7   55.1   54.7   59.3  30.037  0.00  0.00   232     3.33    251     0.0  0.00   0.0   0.069   0.000   72.0    51   52.9   71.2   9.41  .0739    0.000   213    5    100.0   10 
 4/19/19 11:00a   55.2   55.2   55.1    89   52.0   3.0   NNE   0.50   6.0     N   55.2   55.3   55.3   59.8  30.034  0.00  0.00   228     3.27    241     0.0  0.00   0.0   0.068   0.000   72.0    51   52.9   71.2   9.41  .0739    0.005   212    5    100.0   10 
 4/19/19 11:10a   55.3   55.4   55.2    89   52.1   3.0   NNE   0.50   4.0   NNE   55.3   55.4   55.4   60.1  30.037  0.00  0.00   240     3.44    246     0.0  0.00   0.0   0.067   0.000   72.1    51   53.0   71.3   9.41  .0739    0.000   213    5    100.0   10 
 4/19/19 11:20a   55.3   55.5   55.3    89   52.1   2.0    NE   0.33   5.0   NNE   55.3   55.4   55.4   60.9  30.036  0.00  0.00   275     3.94    339     0.0  0.00   0.0   0.067   0.000   72.1    51   53.0   71.3   9.41  .0739    0.000   212    5    100.0   10 
 4/19/19 11:30a   55.7   55.7   55.3    88   52.2   3.0    NE   0.50   5.0   NNE   55.7   55.7   55.7   63.1  30.036  0.00  0.00   368     5.28    397     0.0  0.00   0.0   0.065   0.000   72.2    51   53.1   71.5   9.41  .0739    0.000   213    5    100.0   10 
 4/19/19 11:40a   55.8   55.8   55.5    88   52.3   3.0   NNE   0.50   5.0   NNE   55.8   55.8   55.8   61.4  30.035  0.00  0.00   285     4.09    302     0.0  0.00   0.0   0.064   0.000   72.2    51   53.1   71.5   9.41  .0739    0.000   213    5    100.0   10 
 4/19/19 11:50a   55.0   55.8   55.0    88   51.5   4.0     N   0.67   7.0   NNE   54.6   55.0   54.6   58.6  30.035  0.00  0.00   227     3.25    302     0.0  0.00   0.0   0.069   0.000   72.2    51   53.1   71.5   9.41  .0739    0.000   212    5    100.0   10 
 4/19/19 12:00p   54.9   55.2   54.9    88   51.4   4.0     N   0.67   8.0     N   54.5   54.9   54.5   58.1  30.036  0.00  0.00   213     3.05    287     0.0  0.00   0.0   0.070   0.000   72.2    51   53.1   71.5   9.41  .0739    0.005   213    5    100.0   10 
 4/19/19 12:10p   54.3   54.9   54.3    88   50.8   5.0     N   0.83   8.0   NNE   53.3   54.3   53.3   56.5  30.033  0.00  0.00   198     2.84    214     0.0  0.00   0.0   0.074   0.000   72.3    51   53.2   71.6   9.40  .0739    0.000   211    5    100.0   10 
 4/19/19 12:20p   54.3   54.4   54.2    89   51.1   4.0     N   0.67   7.0     N   53.8   54.4   53.9   56.7  30.034  0.00  0.00   180     2.58    200     0.0  0.00   0.0   0.074   0.000   72.3    51   53.2   71.6   9.40  .0739    0.000   213    5    100.0   10 
 4/19/19 12:30p   54.1   54.3   54.0    89   50.9   5.0     N   0.83   8.0   NNW   53.0   54.2   53.1   55.7  30.029  0.00  0.00   176     2.52    202     0.0  0.00   0.0   0.076   0.000   72.3    51   53.2   71.6   9.40  .0739    0.000   213    5    100.0   10 
 4/19/19 12:40p   54.8   54.8   54.1    89   51.6   4.0     N   0.67   9.0    NE   54.4   54.9   54.5   58.4  30.024  0.00  0.00   228     3.27    265     0.0  0.00   0.0   0.071   0.000   72.4    51   53.2   71.7   9.40  .0738    0.000   212    5    100.0   10 
 4/19/19 12:50p   55.2   55.2   54.8    89   52.0   4.0   ENE   0.67   8.0   NNE   54.8   55.3   54.9   59.3  30.025  0.00  0.00   250     3.58    269     0.0  0.00   0.0   0.068   0.000   72.4    51   53.2   71.7   9.40  .0738    0.000   212    5    100.0   10 
 4/19/19  1:00p   55.1   55.2   55.0    89   51.9   5.0    NE   0.83   8.0   NNE   54.2   55.2   54.3   58.2  30.022  0.00  0.00   231     3.31    262     0.0  0.00   0.0   0.069   0.000   72.4    51   53.2   71.7   9.40  .0738    0.004   211    5    100.0   10 
 4/19/19  1:10p   54.8   55.1   54.6    89   51.6   5.0     N   0.83   8.0   NNE   53.9   54.9   54.0   58.2  30.020  0.00  0.00   244     3.50    295     0.0  0.00   0.0   0.071   0.000   72.5    51   53.3   71.9   9.40  .0738    0.000   212    5    100.0   10 
 4/19/19  1:20p   54.8   55.0   54.7    89   51.6   4.0     N   0.67   8.0   NNW   54.4   54.9   54.5   60.2  30.019  0.00  0.00   306     4.39    387     0.0  0.00   0.0   0.071   0.000   72.5    51   53.3   71.9   9.40  .0738    0.000   210    5    100.0   10 
 4/19/19  1:30p   54.5   55.0   54.5    89   51.3   4.0     N   0.67   8.0     N   54.1   54.6   54.2   58.0  30.020  0.00  0.00   224     3.21    257     0.0  0.00   0.0   0.073   0.000   72.5    51   53.3   71.9   9.40  .0738    0.000   212    5    100.0   10 
 4/19/19  1:40p   54.4   54.8   54.4    88   50.9   5.0     N   0.83   8.0   ENE   53.4   54.4   53.4   57.9  30.019  0.00  0.00   259     3.71    292     0.0  0.00   0.0   0.074   0.000   72.6    51   53.4   72.0   9.40  .0738    0.000   213    5    100.0   10 
 4/19/19  1:50p   55.0   55.1   54.4    89   51.8   4.0   ENE   0.67   8.0   ENE   54.6   55.1   54.7   58.1  30.019  0.00  0.00   206     2.95    251     0.0  0.00   0.0   0.069   0.000   72.6    51   53.4   72.0   9.40  .0738    0.000   212    5    100.0   10 
 4/19/19  2:00p   54.7   55.0   54.5    89   51.5   4.0     N   0.67   8.0     N   54.3   54.8   54.4   57.6  30.018  0.00  0.00   198     2.84    229     0.0  0.00   0.0   0.072   0.000   72.6    51   53.4   72.0   9.40  .0738    0.005   211    5    100.0   10 
 4/19/19  2:10p   54.6   54.7   54.5    88   51.1   4.0     N   0.67   8.0     N   54.2   54.6   54.2   57.0  30.013  0.00  0.00   180     2.58    223     0.0  0.00   0.0   0.072   0.000   72.6    51   53.4   72.0   9.40  .0738    0.000   213    5    100.0   10 
 4/19/19  2:20p   55.1   55.1   54.6    88   51.6   4.0   NNE   0.67   7.0    NE   54.7   55.1   54.7   59.1  30.013  0.00  0.00   244     3.50    258     0.0  0.00   0.0   0.069   0.000   72.6    51   53.4   72.0   9.40  .0738    0.000   211    5    100.0   10 
 4/19/19  2:30p   55.4   55.4   55.1    88   51.9   5.0    NE   0.83   9.0    NE   54.6   55.4   54.6   59.9  30.012  0.00  0.00   278     3.99    327     0.0  0.00   0.0   0.067   0.000   72.7    51   53.5   72.2   9.40  .0737    0.000   209    5    100.0   10 
 4/19/19  2:40p   55.1   55.4   55.1    88   51.6   5.0    NE   0.83   9.0    NE   54.2   55.1   54.2   57.8  30.010  0.00  0.00   206     2.95    230     0.0  0.00   0.0   0.069   0.000   72.7    51   53.5   72.2   9.40  .0737    0.000   213    5    100.0   10 
 4/19/19  2:50p   54.8   55.2   54.8    88   51.3   5.0     N   0.83   9.0     N   53.9   54.8   53.9   56.6  30.011  0.00  0.00   170     2.44    216     0.0  0.00   0.0   0.071   0.000   72.7    51   53.5   72.2   9.40  .0737    0.000   213    5    100.0   10 
 4/19/19  3:00p   54.8   54.8   54.6    88   51.3   5.0   NNE   0.83  10.0    NE   53.9   54.8   53.9   55.3  30.007  0.00  0.00   120     1.72    137     0.0  0.00   0.0   0.071   0.000   72.7    51   53.5   72.2   9.40  .0737    0.004   211    5    100.0   10 
 4/19/19  3:10p   54.8   54.9   54.6    88   51.3   6.0    NE   1.00  11.0   NNE   53.4   54.8   53.4   55.3  30.003  0.00  0.00   135     1.94    156     0.0  0.00   0.0   0.071   0.000   72.7    51   53.5   72.2   9.40  .0737    0.000   213    5    100.0   10 
 4/19/19  3:20p   54.5   54.8   54.5    88   51.0   5.0   NNE   0.83   9.0    NE   53.5   54.5   53.5   54.3  30.000  0.00  0.00    97     1.39    113     0.0  0.00   0.0   0.073   0.000   72.7    51   53.5   72.2   9.40  .0737    0.000   212    5    100.0   10 
 4/19/19  3:30p   54.4   54.6   54.4    88   50.9   5.0   NNE   0.83  11.0   ENE   53.4   54.4   53.4   54.4  29.998  0.00  0.00   104     1.49    123     0.0  0.00   0.0   0.074   0.000   72.7    51   53.5   72.2   9.40  .0737    0.000   210    5    100.0   10 
 4/19/19  3:40p   54.4   54.4   54.3    89   51.2   5.0   NNE   0.83  10.0    NE   53.4   54.5   53.5   54.4  29.998  0.00  0.00    95     1.36    142     0.0  0.00   0.0   0.074   0.000   72.7    51   53.5   72.2   9.40  .0737    0.000   214    5    100.0   10 
 4/19/19  3:50p   54.7   54.7   54.4    89   51.5   6.0   NNE   1.00  10.0     N   53.2   54.8   53.3   57.4  29.997  0.00  0.00   203     2.91    237     0.0  0.00   0.0   0.072   0.000   72.7    51   53.5   72.2   9.40  .0737    0.000   213    5    100.0   10 
 4/19/19  4:00p   54.9   55.0   54.6    89   51.7   5.0    NE   0.83  10.0   NNE   54.0   55.0   54.1   59.4  29.999  0.00  0.00   242     3.47    264     0.0  0.00   0.0   0.070   0.000   72.7    51   53.5   72.2   9.40  .0737    0.003   211    5    100.0   10 
 4/19/19  4:10p   54.1   54.9   54.1    88   50.6   6.0     N   1.00  11.0     N   52.5   54.1   52.5   55.5  30.000  0.00  0.00   157     2.25    221     0.0  0.00   0.0   0.076   0.000   72.7    51   53.5   72.2   9.40  .0737    0.000   214    5    100.0   10 
 4/19/19  4:20p   53.7   54.1   53.7    88   50.2   6.0     N   1.00  10.0     N   52.0   53.7   52.0   52.9  30.001  0.00  0.00    87     1.25    111     0.0  0.00   0.0   0.078   0.000   72.7    51   53.5   72.2   9.40  .0737    0.000   209    5    100.0   10 
 4/19/19  4:30p   53.7   53.8   53.7    89   50.5   6.0     N   1.00  10.0     N   52.0   53.8   52.1   53.2  29.998  0.00  0.00    91     1.30    104     0.0  0.00   0.0   0.078   0.000   72.7    52   54.1   72.3   9.60  .0737    0.000   211    5    100.0   10 
 4/19/19  4:40p   53.8   53.8   53.7    89   50.6   6.0     N   1.00  11.0     N   52.2   53.9   52.3   53.9  29.991  0.00  0.00   102     1.46    105     0.0  0.00   0.0   0.078   0.000   72.7    52   54.1   72.3   9.60  .0737    0.000   212    5    100.0   10 
 4/19/19  4:50p   53.6   53.8   53.6    88   50.1   6.0     N   1.00   9.0   NNW   51.9   53.6   51.9   53.2  29.994  0.00  0.00    90     1.29     97     0.0  0.00   0.0   0.079   0.000   72.7    52   54.1   72.3   9.60  .0737    0.000   210    5    100.0   10 
 4/19/19  5:00p   53.7   53.7   53.6    89   50.5   6.0     N   1.00  11.0   NNE   52.0   53.8   52.1   53.0  29.994  0.00  0.00    77     1.10     95     0.0  0.00   0.0   0.078   0.000   72.7    52   54.1   72.3   9.60  .0737    0.002   209    5    100.0   10 
 4/19/19  5:10p   53.9   53.9   53.7    89   50.7   5.0    NE   0.83  10.0    NE   52.8   54.0   52.9   53.0  29.991  0.00  0.00    54     0.77     63     0.0  0.00   0.0   0.077   0.000   72.7    52   54.1   72.3   9.60  .0737    0.000   213    5    100.0   10 
 4/19/19  5:20p   53.9   53.9   53.9    89   50.7   4.0    NE   0.67   9.0     N   53.4   54.0   53.5   53.3  29.990  0.01  0.00    46     0.66     63     0.0  0.00   0.0   0.077   0.000   72.6    52   54.0   72.1   9.60  .0737    0.000   213    5    100.0   10 
 4/19/19  5:30p   53.8   53.9   53.8    89   50.6   5.0    NE   0.83   9.0    NE   52.7   53.9   52.8   53.5  29.993  0.00  0.00    65     0.93     70     0.0  0.00   0.0   0.078   0.000   72.6    52   54.0   72.1   9.60  .0737    0.000   212    5    100.0   10 
 4/19/19  5:40p   53.7   53.8   53.7    89   50.5   6.0    NE   1.00  11.0    NE   52.0   53.8   52.1   52.2  29.986  0.00  0.00    50     0.72     60     0.0  0.00   0.0   0.078   0.000   72.6    52   54.0   72.1   9.60  .0737    0.000   213    5    100.0   10 
 4/19/19  5:50p   53.8   53.8   53.7    89   50.6   3.0   ENE   0.50   7.0   ENE   53.8   53.9   53.9   54.6  29.989  0.00  0.00    60     0.86     70     0.0  0.00   0.0   0.078   0.000   72.6    52   54.0   72.1   9.60  .0737    0.000   211    5    100.0   10 
 4/19/19  6:00p   53.6   53.9   53.6    89   50.4   7.0    NE   1.17  11.0   NNE   51.5   53.7   51.6   51.7  29.994  0.01  0.00    45     0.65     51     0.0  0.00   0.0   0.079   0.000   72.5    52   53.9   72.0   9.60  .0737    0.001   212    5    100.0   10 
 4/19/19  6:10p   53.5   53.6   53.5    89   50.3   5.0    NE   0.83   9.0    NE   52.3   53.6   52.4   52.7  29.990  0.01  0.07    48     0.69     54     0.0  0.00   0.0   0.080   0.000   72.6    52   54.0   72.1   9.60  .0737    0.000   211    5    100.0   10 
 4/19/19  6:20p   53.5   53.6   53.5    89   50.3   5.0    NE   0.83  10.0    NE   52.3   53.6   52.4   52.3  29.990  0.00  0.05    39     0.56     58     0.0  0.00   0.0   0.080   0.000   72.5    52   53.9   72.0   9.60  .0737    0.000   211    5    100.0   10 
 4/19/19  6:30p   53.4   53.5   53.4    89   50.2   6.0   NNE   1.00  11.0     N   51.7   53.5   51.8   50.4  29.983  0.00  0.00    49     0.70     62     0.0  0.00   0.0   0.081   0.000   72.5    52   53.9   72.0   9.60  .0737    0.000   212    5    100.0   10 
 4/19/19  6:40p   53.4   53.4   53.3    89   50.2   6.0   ENE   1.00  12.0   NNE   51.7   53.5   51.8   50.4  29.971  0.00  0.00    51     0.73     62     0.0  0.00   0.0   0.081   0.000   72.5    52   53.9   72.0   9.60  .0737    0.000   213    5    100.0   10 
 4/19/19  6:50p   53.3   53.5   53.3    89   50.1   5.0    NE   0.83  13.0   ENE   52.1   53.4   52.2   50.3  29.976  0.00  0.00    28     0.40     35     0.0  0.00   0.0   0.081   0.000   72.5    52   53.9   72.0   9.60  .0737    0.000   213    5    100.0   10 
 4/19/19  7:00p   53.0   53.3   53.0    89   49.8   7.0    NE   1.17  12.0   NNE   50.8   53.1   50.9   48.7  29.978  0.00  0.00    16     0.23     19     0.0  0.00   0.0   0.083   0.000   72.5    52   53.9   72.0   9.60  .0737    0.001   212    5    100.0   10 
 4/19/19  7:10p   53.0   53.1   53.0    89   49.8   7.0    NE   1.17  12.0   NNE   50.8   53.1   50.9   48.6  29.980  0.00  0.00    15     0.22     16     0.0  0.00   0.0   0.083   0.000   72.5    52   53.9   72.0   9.60  .0737    0.000   210    5    100.0   10 
 4/19/19  7:20p   52.9   53.0   52.9    89   49.7   6.0     N   1.00  11.0    NE   51.1   53.0   51.2   48.9  29.987  0.00  0.00    13     0.19     16     0.0  0.00   0.0   0.084   0.000   72.4    52   53.8   71.8   9.60  .0737    0.000   212    5    100.0   10 
 4/19/19  7:30p   52.7   52.9   52.7    89   49.5   7.0     N   1.17  11.0   NNW   50.4   52.8   50.5   48.1  29.987  0.00  0.00     8     0.11     11     0.0  0.00   0.0   0.085   0.000   72.5    52   53.9   72.0   9.60  .0737    0.000   212    5    100.0   10 
 4/19/19  7:40p   52.7   52.8   52.7    89   49.5   7.0     N   1.17  11.0   NNW   50.4   52.8   50.5   48.0  29.981  0.00  0.00     4     0.06      5     0.0  0.00   0.0   0.085   0.000   72.5    52   53.9   72.0   9.60  .0737    0.000   211    5    100.0   10 
 4/19/19  7:50p   52.7   52.8   52.7    89   49.5   8.0     N   1.33  12.0   NNE   49.7   52.8   49.8   47.3  29.985  0.00  0.00     0     0.00      0     0.0  0.00   0.0   0.085   0.000   72.5    52   53.9   72.0   9.60  .0737    0.000   212    5    100.0   10 
 4/19/19  8:00p   52.7   52.8   52.7    89   49.5   9.0     N   1.50  14.0   NNE   49.0   52.8   49.1   46.7  29.981  0.00  0.00     0     0.00      0     0.0  0.00   0.0   0.085   0.000   72.4    52   53.8   71.8   9.60  .0737    0.001   213    5    100.0   10 
 4/19/19  8:10p   52.7   52.7   52.7    89   49.5  10.0     N   1.67  14.0   NNW   48.4   52.8   48.5   46.2  29.986  0.00  0.00     0     0.00      0     0.0  0.00   0.0   0.085   0.000   72.4    52   53.8   71.8   9.60  .0737    0.000   212    5    100.0   10 
 4/19/19  8:20p   52.8   52.8   52.7    89   49.6   9.0     N   1.50  14.0     N   49.2   52.9   49.3   46.9  29.987  0.00  0.00     0     0.00      0     0.0  0.00   0.0   0.085   0.000   72.4    52   53.8   71.8   9.60  .0737    0.000   212    5    100.0   10 
 4/19/19  8:30p   52.7   52.8   52.6    89   49.5  10.0    NE   1.67  16.0    NE   48.4   52.8   48.5   46.2  29.985  0.00  0.00     0     0.00      0     0.0  0.00   0.0   0.085   0.000   72.3    52   53.7   71.7   9.60  .0737    0.000   210    5    100.0   10 
 4/19/19  8:40p   52.5   52.7   52.5    89   49.4  12.0    NE   2.00  19.0   NNE   47.2   52.6   47.3   45.2  29.982  0.00  0.00     0     0.00      0     0.0  0.00   0.0   0.087   0.000   72.3    52   53.7   71.7   9.60  .0737    0.000   213    5    100.0   10 
 4/19/19  8:50p   52.5   52.6   52.4    89   49.4  12.0    NE   2.00  19.0   NNE   47.2   52.6   47.3   45.2  29.989  0.00  0.00     0     0.00      0     0.0  0.00   0.0   0.087   0.000   72.3    52   53.7   71.7   9.60  .0737    0.000   212    5    100.0   10 
 4/19/19  9:00p   52.5   52.5   52.5    89   49.4  11.0    NE   1.83  16.0   NNE   47.7   52.6   47.8   45.6  29.994  0.00  0.00     0     0.00      0     0.0  0.00   0.0   0.087   0.000   72.2    52   53.6   71.5   9.61  .0738    0.001   211    5    100.0   10 
 4/19/19  9:10p   52.4   52.5   52.4    89   49.3  10.0    NE   1.67  16.0    NE   48.1   52.5   48.2   45.9  29.997  0.00  0.00     0     0.00      0     0.0  0.00   0.0   0.087   0.000   72.2    52   53.6   71.5   9.61  .0738    0.000   213    5    100.0   10 
 4/19/19  9:20p   52.4   52.4   52.4    89   49.3  10.0    NE   1.67  18.0   NNE   48.1   52.5   48.2   45.9  29.999  0.00  0.00     0     0.00      0     0.0  0.00   0.0   0.087   0.000   72.2    52   53.6   71.5   9.61  .0738    0.000   211    5    100.0   10 
 4/19/19  9:30p   52.3   52.4   52.3    89   49.2  10.0    NE   1.67  17.0   NNE   48.0   52.4   48.1   45.8  30.005  0.00  0.00     0     0.00      0     0.0  0.00   0.0   0.088   0.000   72.1    51   53.0   71.3   9.41  .0738    0.000   213    5    100.0   10 
 4/19/19  9:40p   52.4   52.4   52.3    89   49.3  10.0    NE   1.67  17.0    NE   48.1   52.5   48.2   45.9  30.006  0.00  0.00     0     0.00      0     0.0  0.00   0.0   0.087   0.000   72.1    51   53.0   71.3   9.41  .0738    0.000   211    5    100.0   10 
 4/19/19  9:50p   52.3   52.4   52.3    89   49.2  11.0    NE   1.83  17.0   NNE   47.4   52.4   47.5   45.3  30.004  0.00  0.00     0     0.00      0     0.0  0.00   0.0   0.088   0.000   72.1    51   53.0   71.3   9.41  .0738    0.000   212    5    100.0   10 
 4/19/19 10:00p   52.3   52.3   52.3    89   49.2  10.0    NE   1.67  17.0    NE   48.0   52.4   48.1   45.8  30.005  0.00  0.00     0     0.00      0     0.0  0.00   0.0   0.088   0.000   72.0    51   52.9   71.2   9.41  .0738    0.001   213    5    100.0   10 
 4/19/19 10:10p   52.2   52.3   52.2    89   49.1  12.0    NE   2.00  17.0   NNE   46.8   52.3   46.9   44.8  30.007  0.00  0.00     0     0.00      0     0.0  0.00   0.0   0.089   0.000   72.0    51   52.9   71.2   9.41  .0739    0.000   212    5    100.0   10 
 4/19/19 10:20p   52.1   52.2   52.1    88   48.7  12.0    NE   2.00  18.0    NE   46.7   52.2   46.8   44.7  30.008  0.00  0.00     0     0.00      0     0.0  0.00   0.0   0.090   0.000   71.9    51   52.8   71.0   9.41  .0739    0.000   213    5    100.0   10 
 4/19/19 10:30p   52.2   52.2   52.1    89   49.1  12.0    NE   2.00  18.0   NNE   46.8   52.3   46.9   44.8  30.011  0.00  0.00     0     0.00      0     0.0  0.00   0.0   0.089   0.000   71.9    51   52.8   71.0   9.41  .0739    0.000   211    5    100.0   10 
 4/19/19 10:40p   52.1   52.2   52.1    88   48.7  12.0    NE   2.00  18.0   NNE   46.7   52.2   46.8   44.7  30.014  0.00  0.00     0     0.00      0     0.0  0.00   0.0   0.090   0.000   71.8    51   52.7   70.9   9.41  .0739    0.000   212    5    100.0   10 
 4/19/19 10:50p   52.1   52.2   52.1    88   48.7  11.0    NE   1.83  18.0    NE   47.2   52.2   47.3   45.1  30.012  0.00  0.00     0     0.00      0     0.0  0.00   0.0   0.090   0.000   71.8    51   52.7   70.9   9.41  .0739    0.000   213    5    100.0   10 
 4/19/19 11:00p   52.1   52.1   52.1    88   48.7  12.0    NE   2.00  18.0   NNE   46.7   52.2   46.8   44.7  30.012  0.00  0.00     0     0.00      0     0.0  0.00   0.0   0.090   0.000   71.7    51   52.6   70.7   9.42  .0739    0.001   214    5    100.0   10 
 4/19/19 11:10p   52.0   52.1   52.0    88   48.6  13.0    NE   2.17  18.0    NE   46.2   52.1   46.3   44.2  30.012  0.00  0.00     0     0.00      0     0.0  0.00   0.0   0.090   0.000   71.7    51   52.6   70.7   9.42  .0739    0.000   209    5    100.0   10 
 4/19/19 11:20p   52.0   52.1   52.0    88   48.6  13.0    NE   2.17  20.0    NE   46.2   52.1   46.3   44.2  30.014  0.00  0.00     0     0.00      0     0.0  0.00   0.0   0.090   0.000   71.6    51   52.5   70.6   9.42  .0739    0.000   212    5    100.0   10 
 4/19/19 11:30p   51.9   52.1   51.9    88   48.5  12.0    NE   2.00  18.0    NE   46.5   52.0   46.6   44.5  30.017  0.00  0.00     0     0.00      0     0.0  0.00   0.0   0.091   0.000   71.6    51   52.5   70.6   9.42  .0739    0.000   213    5    100.0   10 
 4/19/19 11:40p   52.0   52.1   51.9    88   48.6  11.0   NNE   1.83  16.0    NE   47.1   52.1   47.2   45.0  30.019  0.00  0.00     0     0.00      0     0.0  0.00   0.0   0.090   0.000   71.5    51   52.4   70.4   9.42  .0740    0.000   211    5    100.0   10 
 4/19/19 11:50p   51.9   52.0   51.8    88   48.5  10.0   NNE   1.67  15.0   NNE   47.5   52.0   47.6   45.3  30.019  0.00  0.00     0     0.00      0     0.0  0.00   0.0   0.091   0.000   71.5    51   52.4   70.4   9.42  .0740    0.000   211    5    100.0   10 
 4/20/19 12:00a   51.8   51.9   51.7    88   48.4  13.0   NNE   2.17  19.0   NNE   46.0   51.9   46.1   44.0  30.016  0.00  0.00     0     0.00      0     0.0  0.00   0.0   0.092   0.000   71.4    51   52.3   70.3   9.42  .0740    0.001   213    5    100.0   10 
 4/20/19 12:10a   51.6   51.8   51.6    88   48.2  13.0    NE   2.17  18.0    NE   45.7   51.7   45.8   43.7  30.015  0.00  0.00     0     0.00      0     0.0  0.00   0.0   0.093   0.000   71.4    51   52.3   70.3   9.42  .0740    0.000   210    5    100.0   10 
 4/20/19 12:20a   51.6   51.7   51.6    88   48.2  12.0    NE   2.00  18.0    NE   46.1   51.7   46.2   44.1  30.016  0.01  0.00     0     0.00      0     0.0  0.00   0.0   0.093   0.000   71.4    51   52.3   70.3   9.42  .0740    0.000   212    5    100.0   10 
 4/20/19 12:30a   51.4   51.6   51.4    88   48.0  14.0    NE   2.33  19.0    NE   45.1   51.5   45.2   43.1  30.018  0.00  0.00     0     0.00      0     0.0  0.00   0.0   0.094   0.000   71.3    51   52.2   70.1   9.42  .0740    0.000   211    5    100.0   10 
 4/20/19 12:40a   51.3   51.5   51.3    88   47.9  13.0    NE   2.17  19.0   NNE   45.4   51.4   45.5   43.4  30.020  0.01  0.00     0     0.00      0     0.0  0.00   0.0   0.095   0.000   71.3    51   52.2   70.1   9.42  .0740    0.000   211    5    100.0   10 
 4/20/19 12:50a   51.4   51.4   51.3    88   48.0  13.0    NE   2.17  20.0   NNE   45.5   51.5   45.6   43.5  30.021  0.00  0.00     0     0.00      0     0.0  0.00   0.0   0.094   0.000   71.2    51   52.1   70.0   9.43  .0740    0.000   213    5    100.0   10 
 4/20/19  1:00a   51.3   51.4   51.3    88   47.9  14.0    NE   2.33  20.0    NE   45.0   51.4   45.1   43.0  30.020  0.00  0.00     0     0.00      0     0.0  0.00   0.0   0.095   0.000   71.1    51   52.0   69.8   9.43  .0740    0.001   209    5    100.0   10 
 4/20/19  1:10a   51.4   51.4   51.3    88   48.0  12.0    NE   2.00  18.0   ENE   45.9   51.5   46.0   43.8  30.020  0.00  0.00     0     0.00      0     0.0  0.00   0.0   0.094   0.000   71.1    51   52.0   69.8   9.43  .0740    0.000   213    5    100.0   10 
 4/20/19  1:20a   51.2   51.4   51.2    88   47.8  14.0   NNE   2.33  20.0   NNE   44.9   51.3   45.0   42.9  30.017  0.00  0.00     0     0.00      0     0.0  0.00   0.0   0.096   0.000   71.1    51   52.0   69.8   9.43  .0740    0.000   212    5    100.0   10 
 4/20/19  1:30a   51.3   51.3   51.2    88   47.9  13.0    NE   2.17  20.0    NE   45.4   51.4   45.5   43.4  30.016  0.00  0.00     0     0.00      0     0.0  0.00   0.0   0.095   0.000   71.0    51   52.0   69.7   9.43  .0740    0.000   211    5    100.0   10 
Email: AdamSPAM@StormwatchersRetreat.com (To send me email remove the word 'SPAM' from my email address.)